Impacts TAF Board INFO
FOR SITUATIONAL AWARENESS. NOT TO BE USED FOR FLIGHT PLANNING PURPOSES.
IDs:

KSTL - St Louis/Lambert Int, MO, US

Issued at 0258 UTC 21 Nov 2017
Updated at 0427 UTC 21 Nov 2017
Potential Impact None Slight Moderate High
Time0351Z 21/05Z 21/06Z 21/07Z 21/08Z 21/09Z 21/10Z 21/11Z 21/12Z 21/13Z 21/14Z 21/15Z 21/16Z 21/17Z>>
Type OBS PRVL PRVL PRVL PRVL PRVL PRVL PRVL PRVL PRVL PRVL PRVL PRVL PRVL
VIS 10 >6 >6 >6 >6 >6 >6 >6 >6 >6 >6 >6 >6 >6
CIG 250 250 250 250 250 250 250 250 250 250 140 140 140 --
Cover BKN BKN BKN BKN BKN BKN BKN BKN BKN BKN BKN BKN BKN SCT
FltCat VFR VFR VFR VFR VFR VFR VFR VFR VFR VFR VFR VFR VFR VFR
WX -- -- -- -- -- -- -- -- -- -- -- -- -- --
WDir 200 190 190 190 190 190 190 190 190 190 220 220 220 270
WSpd 8 8 8 8 8 8 8 8 8 8 9 9 9 8
WGst -- -- -- -- -- -- -- -- -- -- -- -- -- --

Raw TAF
KSTL 210258Z 2103/2206 19008KT P6SM BKN250 WS014/24040KT
  FM211400 22009KT P6SM BKN140
  FM211700 27008KT P6SM SCT110
  FM212000 32010KT P6SM SCT080
  FM220200 34006KT P6SM SKC


Raw METAR
KSTL 210351Z 20008KT 10SM BKN250 09/M02 A2988 RMK AO2 SLP119 T00891017
KSTL 210251Z 19008KT 10SM BKN250 09/M02 A2988 RMK AO2 SLP119 T00941022 55000
KSTL 210151Z 18010KT 10SM BKN250 10/M02 A2988 RMK AO2 SLP123 T01001022

METAR Board
Radar Display
Forecast Discussion

FOR SITUATIONAL AWARENESS. NOT TO BE USED FOR FLIGHT PLANNING PURPOSES.